sensor_id;sensor_type;location;lat;lon;timestamp;pressure;altitude;pressure_sealevel;temperature;humidity
75072;BME280;63651;55.728;38.022;2022-12-07T00:03:55;100693.00;;;12.36;25.31
75072;BME280;63651;55.728;38.022;2022-12-07T00:09:06;100689.16;;;12.31;25.15
75072;BME280;63651;55.728;38.022;2022-12-07T00:14:12;100679.19;;;12.23;25.36
75072;BME280;63651;55.728;38.022;2022-12-07T00:19:14;100693.75;;;12.30;25.17
75072;BME280;63651;55.728;38.022;2022-12-07T00:24:15;100693.75;;;12.30;25.10
75072;BME280;63651;55.728;38.022;2022-12-07T00:29:19;100676.19;;;12.18;25.22
75072;BME280;63651;55.728;38.022;2022-12-07T00:34:21;100676.09;;;12.26;25.46
75072;BME280;63651;55.728;38.022;2022-12-07T00:39:22;100683.41;;;12.26;25.02
75072;BME280;63651;55.728;38.022;2022-12-07T00:44:23;100682.09;;;12.22;25.07
75072;BME280;63651;55.728;38.022;2022-12-07T00:49:24;100684.00;;;12.21;24.71
75072;BME280;63651;55.728;38.022;2022-12-07T00:54:25;100684.66;;;12.23;24.91
75072;BME280;63651;55.728;38.022;2022-12-07T00:59:27;100687.75;;;12.20;25.01
75072;BME280;63651;55.728;38.022;2022-12-07T01:04:28;100684.19;;;12.20;25.02
75072;BME280;63651;55.728;38.022;2022-12-07T01:09:30;100685.22;;;12.18;25.37
75072;BME280;63651;55.728;38.022;2022-12-07T01:14:31;100683.13;;;12.21;24.87
75072;BME280;63651;55.728;38.022;2022-12-07T01:19:32;100685.59;;;12.15;24.99
75072;BME280;63651;55.728;38.022;2022-12-07T01:24:33;100667.38;;;12.16;24.51
75072;BME280;63651;55.728;38.022;2022-12-07T01:29:35;100674.22;;;12.12;25.22
75072;BME280;63651;55.728;38.022;2022-12-07T01:34:36;100679.28;;;12.15;24.95
75072;BME280;63651;55.728;38.022;2022-12-07T01:39:37;100676.28;;;12.10;24.79
75072;BME280;63651;55.728;38.022;2022-12-07T01:50:17;100661.34;;;12.06;24.40
75072;BME280;63651;55.728;38.022;2022-12-07T01:55:19;100676.66;;;12.07;24.54
75072;BME280;63651;55.728;38.022;2022-12-07T02:00:21;100666.63;;;12.07;25.13
75072;BME280;63651;55.728;38.022;2022-12-07T02:05:24;100655.16;;;11.97;24.28
75072;BME280;63651;55.728;38.022;2022-12-07T02:10:28;100657.03;;;11.97;25.04
75072;BME280;63651;55.728;38.022;2022-12-07T02:15:39;100668.88;;;12.04;24.48
75072;BME280;63651;55.728;38.022;2022-12-07T02:31:37;100642.94;;;11.93;24.25
75072;BME280;63651;55.728;38.022;2022-12-07T02:36:49;100659.75;;;11.97;24.36
75072;BME280;63651;55.728;38.022;2022-12-07T02:41:56;100638.91;;;11.89;24.46
75072;BME280;63651;55.728;38.022;2022-12-07T02:47:09;100653.66;;;11.95;24.40
75072;BME280;63651;55.728;38.022;2022-12-07T02:52:11;100655.06;;;11.91;24.43
75072;BME280;63651;55.728;38.022;2022-12-07T03:07:55;100632.72;;;11.80;24.12
75072;BME280;63651;55.728;38.022;2022-12-07T03:13:15;100648.00;;;11.81;24.28
75072;BME280;63651;55.728;38.022;2022-12-07T03:18:22;100627.25;;;11.80;24.07
75072;BME280;63651;55.728;38.022;2022-12-07T03:23:25;100640.31;;;11.85;24.29
75072;BME280;63651;55.728;38.022;2022-12-07T03:28:32;100642.94;;;11.78;23.88
75072;BME280;63651;55.728;38.022;2022-12-07T03:33:39;100645.47;;;11.80;24.04
75072;BME280;63651;55.728;38.022;2022-12-07T03:38:46;100640.69;;;11.82;23.89
75072;BME280;63651;55.728;38.022;2022-12-07T03:43:49;100636.66;;;11.78;24.10
75072;BME280;63651;55.728;38.022;2022-12-07T03:49:05;100633.25;;;11.76;24.54
75072;BME280;63651;55.728;38.022;2022-12-07T03:59:21;100630.88;;;11.73;24.36
75072;BME280;63651;55.728;38.022;2022-12-07T04:04:24;100642.44;;;11.75;24.29
75072;BME280;63651;55.728;38.022;2022-12-07T04:09:26;100634.28;;;11.75;23.86
75072;BME280;63651;55.728;38.022;2022-12-07T04:14:27;100633.09;;;11.69;24.49
75072;BME280;63651;55.728;38.022;2022-12-07T04:19:30;100633.09;;;11.69;24.24
75072;BME280;63651;55.728;38.022;2022-12-07T04:24:32;100626.81;;;11.69;24.22
75072;BME280;63651;55.728;38.022;2022-12-07T04:29:34;100632.44;;;11.67;24.28
75072;BME280;63651;55.728;38.022;2022-12-07T04:34:35;100641.81;;;11.65;24.24
75072;BME280;63651;55.728;38.022;2022-12-07T04:39:36;100631.78;;;11.65;23.63
75072;BME280;63651;55.728;38.022;2022-12-07T04:44:37;100629.25;;;11.64;24.33
75072;BME280;63651;55.728;38.022;2022-12-07T04:49:38;100629.25;;;11.64;23.68
75072;BME280;63651;55.728;38.022;2022-12-07T04:54:39;100619.84;;;11.51;24.14
75072;BME280;63651;55.728;38.022;2022-12-07T04:59:42;100620.63;;;11.60;24.01
75072;BME280;63651;55.728;38.022;2022-12-07T05:04:43;100625.88;;;11.62;23.80
75072;BME280;63651;55.728;38.022;2022-12-07T05:09:44;100633.56;;;11.58;24.55
75072;BME280;63651;55.728;38.022;2022-12-07T05:14:45;100634.41;;;11.59;24.00
75072;BME280;63651;55.728;38.022;2022-12-07T05:19:46;100621.84;;;11.58;24.40
75072;BME280;63651;55.728;38.022;2022-12-07T05:24:47;100623.53;;;11.59;23.89
75072;BME280;63651;55.728;38.022;2022-12-07T05:29:49;100611.03;;;11.49;23.92
75072;BME280;63651;55.728;38.022;2022-12-07T05:34:51;100627.94;;;11.60;24.32
75072;BME280;63651;55.728;38.022;2022-12-07T05:39:52;100633.56;;;11.58;24.39
75072;BME280;63651;55.728;38.022;2022-12-07T05:44:53;100636.75;;;11.62;23.85
75072;BME280;63651;55.728;38.022;2022-12-07T05:49:54;100636.56;;;11.63;24.46
75072;BME280;63651;55.728;38.022;2022-12-07T05:54:55;100631.13;;;11.63;24.20
75072;BME280;63651;55.728;38.022;2022-12-07T05:59:56;100627.00;;;11.67;24.59
75072;BME280;63651;55.728;38.022;2022-12-07T06:04:57;100627.84;;;11.68;23.75
75072;BME280;63651;55.728;38.022;2022-12-07T06:09:58;100627.50;;;11.71;24.09
75072;BME280;63651;55.728;38.022;2022-12-07T06:15:00;100621.88;;;11.72;23.96
75072;BME280;63651;55.728;38.022;2022-12-07T06:20:01;100613.91;;;11.71;24.40
75072;BME280;63651;55.728;38.022;2022-12-07T06:25:03;100616.06;;;11.75;24.17
75072;BME280;63651;55.728;38.022;2022-12-07T06:30:05;100616.66;;;11.85;24.07
75072;BME280;63651;55.728;38.022;2022-12-07T06:35:07;100619.47;;;11.92;24.75
75072;BME280;63651;55.728;38.022;2022-12-07T06:40:09;100609.72;;;11.98;24.72
75072;BME280;63651;55.728;38.022;2022-12-07T06:45:10;100611.31;;;12.07;25.21
75072;BME280;63651;55.728;38.022;2022-12-07T06:50:11;100612.16;;;12.07;25.25
75072;BME280;63651;55.728;38.022;2022-12-07T06:55:12;100610.47;;;12.06;25.38
75072;BME280;63651;55.728;38.022;2022-12-07T07:00:14;100612.63;;;12.11;26.18
75072;BME280;63651;55.728;38.022;2022-12-07T07:05:15;100624.19;;;12.49;25.83
75072;BME280;63651;55.728;38.022;2022-12-07T07:10:17;100619.06;;;12.39;26.22
75072;BME280;63651;55.728;38.022;2022-12-07T07:15:18;100624.81;;;13.23;26.35
75072;BME280;63651;55.728;38.022;2022-12-07T07:20:19;100621.84;;;12.82;27.02
75072;BME280;63651;55.728;38.022;2022-12-07T07:25:20;100627.34;;;12.67;27.12
75072;BME280;63651;55.728;38.022;2022-12-07T07:30:22;100622.53;;;12.69;26.87
75072;BME280;63651;55.728;38.022;2022-12-07T07:35:23;100610.59;;;12.70;26.96
75072;BME280;63651;55.728;38.022;2022-12-07T07:40:25;100612.28;;;12.71;27.88
75072;BME280;63651;55.728;38.022;2022-12-07T07:45:26;100610.66;;;12.77;28.00
75072;BME280;63651;55.728;38.022;2022-12-07T07:50:28;100599.97;;;12.75;27.76
75072;BME280;63651;55.728;38.022;2022-12-07T07:55:29;100609.25;;;12.81;27.72
75072;BME280;63651;55.728;38.022;2022-12-07T08:00:30;100597.00;;;13.62;28.47
75072;BME280;63651;55.728;38.022;2022-12-07T08:05:31;100602.41;;;13.06;29.23
75072;BME280;63651;55.728;38.022;2022-12-07T08:10:32;100595.69;;;12.88;29.48
75072;BME280;63651;55.728;38.022;2022-12-07T08:15:36;100598.84;;;12.91;28.99
75072;BME280;63651;55.728;38.022;2022-12-07T08:20:38;100588.94;;;12.83;29.57
75072;BME280;63651;55.728;38.022;2022-12-07T08:25:40;100591.38;;;12.78;30.12
75072;BME280;63651;55.728;38.022;2022-12-07T08:30:41;100584.91;;;12.79;30.30
75072;BME280;63651;55.728;38.022;2022-12-07T08:35:42;100587.16;;;12.76;29.98
75072;BME280;63651;55.728;38.022;2022-12-07T08:40:44;100580.69;;;12.77;30.42
75072;BME280;63651;55.728;38.022;2022-12-07T08:45:45;100584.63;;;12.74;30.60
75072;BME280;63651;55.728;38.022;2022-12-07T08:50:48;100565.34;;;12.76;30.82
75072;BME280;63651;55.728;38.022;2022-12-07T08:55:49;100577.81;;;12.85;30.39
75072;BME280;63651;55.728;38.022;2022-12-07T09:00:50;100561.66;;;12.83;30.23
75072;BME280;63651;55.728;38.022;2022-12-07T09:05:52;100556.00;;;12.85;30.39
75072;BME280;63651;55.728;38.022;2022-12-07T09:10:54;100566.34;;;12.90;30.54
75072;BME280;63651;55.728;38.022;2022-12-07T09:15:55;100562.38;;;12.92;31.07
75072;BME280;63651;55.728;38.022;2022-12-07T09:20:57;100551.66;;;12.91;30.39
75072;BME280;63651;55.728;38.022;2022-12-07T09:26:02;100539.84;;;12.83;30.08
75072;BME280;63651;55.728;38.022;2022-12-07T09:31:04;100550.41;;;12.93;30.18
75072;BME280;63651;55.728;38.022;2022-12-07T09:36:06;100537.88;;;12.99;30.43
75072;BME280;63651;55.728;38.022;2022-12-07T09:41:07;100529.25;;;12.95;30.51
75072;BME280;63651;55.728;38.022;2022-12-07T09:46:13;100509.47;;;12.87;30.35
75072;BME280;63651;55.728;38.022;2022-12-07T09:51:19;100506.53;;;12.88;30.44
75072;BME280;63651;55.728;38.022;2022-12-07T09:56:21;100515.63;;;12.95;30.47
75072;BME280;63651;55.728;38.022;2022-12-07T10:01:23;100514.78;;;12.95;30.03
75072;BME280;63651;55.728;38.022;2022-12-07T10:06:24;100520.75;;;12.83;30.26
75072;BME280;63651;55.728;38.022;2022-12-07T10:11:25;100504.69;;;12.67;30.68
75072;BME280;63651;55.728;38.022;2022-12-07T10:21:28;100497.03;;;12.56;30.78
75072;BME280;63651;55.728;38.022;2022-12-07T10:32:00;100513.31;;;12.49;30.74
75072;BME280;63651;55.728;38.022;2022-12-07T10:37:15;100504.50;;;12.47;30.54
75072;BME280;63651;55.728;38.022;2022-12-07T10:58:14;100480.03;;;12.33;30.36
75072;BME280;63651;55.728;38.022;2022-12-07T11:08:48;100473.94;;;12.31;30.50
75072;BME280;63651;55.728;38.022;2022-12-07T11:25:21;100466.06;;;12.21;30.81
75072;BME280;63651;55.728;38.022;2022-12-07T11:30:30;100443.19;;;12.15;30.45
75072;BME280;63651;55.728;38.022;2022-12-07T11:41:00;100448.63;;;12.15;30.63
75072;BME280;63651;55.728;38.022;2022-12-07T11:46:15;100428.38;;;12.03;31.17
75072;BME280;63651;55.728;38.022;2022-12-07T11:51:18;100439.75;;;12.07;30.93
75072;BME280;63651;55.728;38.022;2022-12-07T11:56:24;100442.13;;;11.95;30.69
75072;BME280;63651;55.728;38.022;2022-12-07T12:06:44;100425.78;;;11.95;31.01
75072;BME280;63651;55.728;38.022;2022-12-07T12:22:28;100424.03;;;11.88;30.40
75072;BME280;63651;55.728;38.022;2022-12-07T12:27:36;100418.06;;;11.77;31.03
75072;BME280;63651;55.728;38.022;2022-12-07T12:32:44;100411.91;;;11.75;31.02
75072;BME280;63651;55.728;38.022;2022-12-07T12:37:46;100417.94;;;11.71;30.91
75072;BME280;63651;55.728;38.022;2022-12-07T12:42:51;100420.81;;;11.69;30.17
75072;BME280;63651;55.728;38.022;2022-12-07T12:48:02;100417.75;;;11.58;30.35
75072;BME280;63651;55.728;38.022;2022-12-07T12:58:29;100400.50;;;11.50;31.14
75072;BME280;63651;55.728;38.022;2022-12-07T13:03:32;100386.06;;;11.50;30.66
75072;BME280;63651;55.728;38.022;2022-12-07T13:08:35;100387.19;;;11.41;30.35
75072;BME280;63651;55.728;38.022;2022-12-07T13:13:41;100397.63;;;11.37;30.64
75072;BME280;63651;55.728;38.022;2022-12-07T13:18:42;100408.50;;;11.37;30.81
75072;BME280;63651;55.728;38.022;2022-12-07T13:33:50;100400.91;;;11.18;31.12
75072;BME280;63651;55.728;38.022;2022-12-07T13:38:58;100387.59;;;11.23;30.59
75072;BME280;63651;55.728;38.022;2022-12-07T13:44:12;100378.59;;;11.08;30.41
75072;BME280;63651;55.728;38.022;2022-12-07T13:49:28;100397.72;;;11.14;31.09
75072;BME280;63651;55.728;38.022;2022-12-07T13:54:30;100389.75;;;11.13;30.76
75072;BME280;63651;55.728;38.022;2022-12-07T13:59:31;100383.59;;;11.04;30.29
75072;BME280;63651;55.728;38.022;2022-12-07T14:04:38;100368.41;;;10.95;30.03
75072;BME280;63651;55.728;38.022;2022-12-07T14:09:39;100368.59;;;10.94;30.76
75072;BME280;63651;55.728;38.022;2022-12-07T14:14:47;100366.91;;;10.93;30.24
75072;BME280;63651;55.728;38.022;2022-12-07T14:19:58;100376.84;;;10.85;30.24
75072;BME280;63651;55.728;38.022;2022-12-07T14:25:21;100379.84;;;10.90;30.46
75072;BME280;63651;55.728;38.022;2022-12-07T14:30:27;100380.41;;;10.86;30.34
75072;BME280;63651;55.728;38.022;2022-12-07T14:35:30;100375.16;;;10.84;30.34
75072;BME280;63651;55.728;38.022;2022-12-07T14:40:32;100377.41;;;10.81;30.19
75072;BME280;63651;55.728;38.022;2022-12-07T14:45:33;100368.97;;;10.76;30.17
75072;BME280;63651;55.728;38.022;2022-12-07T14:50:40;100351.16;;;10.58;30.07
75072;BME280;63651;55.728;38.022;2022-12-07T14:55:42;100358.28;;;10.74;30.48
75072;BME280;63651;55.728;38.022;2022-12-07T15:00:44;100358.28;;;10.74;29.74
75072;BME280;63651;55.728;38.022;2022-12-07T15:05:45;100353.69;;;10.75;30.52
75072;BME280;63651;55.728;38.022;2022-12-07T15:10:46;100363.16;;;10.79;29.99
75072;BME280;63651;55.728;38.022;2022-12-07T15:15:49;100367.94;;;10.77;30.37
75072;BME280;63651;55.728;38.022;2022-12-07T15:20:50;100353.03;;;10.73;30.25
75072;BME280;63651;55.728;38.022;2022-12-07T15:25:52;100346.09;;;10.70;30.29
75072;BME280;63651;55.728;38.022;2022-12-07T15:30:53;100348.25;;;10.75;30.63
75072;BME280;63651;55.728;38.022;2022-12-07T15:35:54;100339.06;;;10.76;30.32
75072;BME280;63651;55.728;38.022;2022-12-07T15:40:56;100344.59;;;10.68;30.50
75072;BME280;63651;55.728;38.022;2022-12-07T15:45:57;100340.84;;;10.69;30.08
75072;BME280;63651;55.728;38.022;2022-12-07T15:51:04;100342.72;;;10.68;30.30
75072;BME280;63651;55.728;38.022;2022-12-07T15:56:06;100335.69;;;10.74;29.64
75072;BME280;63651;55.728;38.022;2022-12-07T16:01:16;100343.75;;;10.67;29.57
75072;BME280;63651;55.728;38.022;2022-12-07T16:06:18;100332.13;;;10.73;30.15
75072;BME280;63651;55.728;38.022;2022-12-07T16:11:20;100324.72;;;10.67;29.59
75072;BME280;63651;55.728;38.022;2022-12-07T16:16:21;100327.91;;;10.71;30.06
75072;BME280;63651;55.728;38.022;2022-12-07T16:21:23;100302.06;;;10.60;29.26
75072;BME280;63651;55.728;38.022;2022-12-07T16:26:24;100311.16;;;10.67;29.29
75072;BME280;63651;55.728;38.022;2022-12-07T16:31:27;100307.78;;;10.65;30.21
75072;BME280;63651;55.728;38.022;2022-12-07T16:36:29;100314.34;;;10.71;29.93
75072;BME280;63651;55.728;38.022;2022-12-07T16:41:30;100298.41;;;10.68;29.53
75072;BME280;63651;55.728;38.022;2022-12-07T16:46:33;100307.59;;;10.67;29.08
75072;BME280;63651;55.728;38.022;2022-12-07T16:51:34;100307.59;;;10.67;29.50
75072;BME280;63651;55.728;38.022;2022-12-07T16:56:37;100294.00;;;10.67;29.74
75072;BME280;63651;55.728;38.022;2022-12-07T17:01:39;100288.75;;;10.65;29.73
75072;BME280;63651;55.728;38.022;2022-12-07T17:06:40;100289.78;;;10.64;29.41
75072;BME280;63651;55.728;38.022;2022-12-07T17:11:43;100280.41;;;10.67;29.86
75072;BME280;63651;55.728;38.022;2022-12-07T17:16:45;100282.00;;;10.61;30.15
75072;BME280;63651;55.728;38.022;2022-12-07T17:21:47;100279.75;;;10.65;28.57
75072;BME280;63651;55.728;38.022;2022-12-07T17:26:48;100282.84;;;10.62;28.93
75072;BME280;63651;55.728;38.022;2022-12-07T17:31:50;100270.97;;;10.63;29.50
75072;BME280;63651;55.728;38.022;2022-12-07T17:36:51;100253.44;;;10.50;29.00
75072;BME280;63651;55.728;38.022;2022-12-07T17:41:52;100269.66;;;10.58;29.49
75072;BME280;63651;55.728;38.022;2022-12-07T17:47:11;100267.78;;;10.59;28.94
75072;BME280;63651;55.728;38.022;2022-12-07T17:52:12;100266.38;;;10.63;29.35
75072;BME280;63651;55.728;38.022;2022-12-07T17:57:32;100269.66;;;10.58;29.21
75072;BME280;63651;55.728;38.022;2022-12-07T18:02:33;100269.00;;;10.56;29.55
75072;BME280;63651;55.728;38.022;2022-12-07T18:07:34;100253.53;;;10.57;29.30
75072;BME280;63651;55.728;38.022;2022-12-07T18:12:36;100253.72;;;10.55;29.46
75072;BME280;63651;55.728;38.022;2022-12-07T18:17:37;100235.19;;;10.44;30.41
75072;BME280;63651;55.728;38.022;2022-12-07T18:22:39;100261.03;;;10.55;30.16
75072;BME280;63651;55.728;38.022;2022-12-07T18:27:42;100243.50;;;10.57;30.59
75072;BME280;63651;55.728;38.022;2022-12-07T18:32:43;100243.03;;;10.54;29.72
75072;BME280;63651;55.728;38.022;2022-12-07T18:37:44;100254.38;;;10.57;29.96
75072;BME280;63651;55.728;38.022;2022-12-07T18:42:45;100217.28;;;10.50;30.25
75072;BME280;63651;55.728;38.022;2022-12-07T18:47:46;100229.09;;;10.57;29.81
75072;BME280;63651;55.728;38.022;2022-12-07T18:52:47;100226.94;;;10.52;30.31
75072;BME280;63651;55.728;38.022;2022-12-07T18:57:48;100233.50;;;10.58;30.27
75072;BME280;63651;55.728;38.022;2022-12-07T19:02:50;100228.72;;;10.60;30.54
75072;BME280;63651;55.728;38.022;2022-12-07T19:07:52;100212.78;;;10.57;30.57
75072;BME280;63651;55.728;38.022;2022-12-07T19:12:53;100223.47;;;10.58;29.67
75072;BME280;63651;55.728;38.022;2022-12-07T19:17:54;100208.94;;;10.51;29.92
75072;BME280;63651;55.728;38.022;2022-12-07T19:22:55;100198.75;;;10.53;29.67
75072;BME280;63651;55.728;38.022;2022-12-07T19:27:56;100199.38;;;10.55;29.70
75072;BME280;63651;55.728;38.022;2022-12-07T19:32:57;100200.88;;;10.58;30.54
75072;BME280;63651;55.728;38.022;2022-12-07T19:37:58;100204.81;;;10.55;31.75
75072;BME280;63651;55.728;38.022;2022-12-07T19:42:59;100180.28;;;10.49;32.73
75072;BME280;63651;55.728;38.022;2022-12-07T19:48:00;100200.22;;;10.56;32.18
75072;BME280;63651;55.728;38.022;2022-12-07T19:53:02;100197.91;;;10.53;31.96
75072;BME280;63651;55.728;38.022;2022-12-07T19:58:03;100201.66;;;10.52;33.14
75072;BME280;63651;55.728;38.022;2022-12-07T20:03:04;100204.56;;;10.50;32.29
75072;BME280;63651;55.728;38.022;2022-12-07T20:08:05;100209.78;;;10.52;32.37
75072;BME280;63651;55.728;38.022;2022-12-07T20:13:07;100185.63;;;10.42;31.96
75072;BME280;63651;55.728;38.022;2022-12-07T20:18:27;100211.00;;;10.49;31.58
75072;BME280;63651;55.728;38.022;2022-12-07T20:23:28;100201.94;;;10.42;31.73
75072;BME280;63651;55.728;38.022;2022-12-07T20:28:29;100208.69;;;10.46;31.01
75072;BME280;63651;55.728;38.022;2022-12-07T20:33:31;100205.31;;;10.44;31.16
75072;BME280;63651;55.728;38.022;2022-12-07T20:38:32;100199.88;;;10.44;31.12
75072;BME280;63651;55.728;38.022;2022-12-07T20:43:33;100186.47;;;10.43;31.26
75072;BME280;63651;55.728;38.022;2022-12-07T20:48:34;100207.91;;;10.38;30.92
75072;BME280;63651;55.728;38.022;2022-12-07T20:53:35;100197.16;;;10.44;30.87
75072;BME280;63651;55.728;38.022;2022-12-07T20:58:37;100193.13;;;10.40;30.55
75072;BME280;63651;55.728;38.022;2022-12-07T21:03:38;100184.69;;;10.35;30.52
75072;BME280;63651;55.728;38.022;2022-12-07T21:08:49;100182.34;;;10.32;31.06
75072;BME280;63651;55.728;38.022;2022-12-07T21:13:50;100157.91;;;10.32;30.62
75072;BME280;63651;55.728;38.022;2022-12-07T21:18:55;100170.44;;;10.33;29.68
75072;BME280;63651;55.728;38.022;2022-12-07T21:23:56;100158.94;;;10.31;30.25
75072;BME280;63651;55.728;38.022;2022-12-07T21:28:59;100171.09;;;10.35;29.62
75072;BME280;63651;55.728;38.022;2022-12-07T21:34:01;100162.31;;;10.33;30.66
75072;BME280;63651;55.728;38.022;2022-12-07T21:39:04;100163.72;;;10.29;30.55
75072;BME280;63651;55.728;38.022;2022-12-07T21:44:06;100169.78;;;10.31;30.16
75072;BME280;63651;55.728;38.022;2022-12-07T21:49:12;100171.00;;;10.29;30.50
75072;BME280;63651;55.728;38.022;2022-12-07T21:54:13;100176.06;;;10.32;30.52
75072;BME280;63651;55.728;38.022;2022-12-07T21:59:15;100159.31;;;10.28;30.00
75072;BME280;63651;55.728;38.022;2022-12-07T22:04:23;100147.03;;;10.32;30.74
75072;BME280;63651;55.728;38.022;2022-12-07T22:09:24;100150.97;;;10.30;30.28
75072;BME280;63651;55.728;38.022;2022-12-07T22:14:27;100152.84;;;10.29;29.87
75072;BME280;63651;55.728;38.022;2022-12-07T22:19:47;100125.03;;;10.12;30.01
75072;BME280;63651;55.728;38.022;2022-12-07T22:24:48;100147.22;;;10.31;30.59
75072;BME280;63651;55.728;38.022;2022-12-07T22:29:49;100142.44;;;10.33;29.61
75072;BME280;63651;55.728;38.022;2022-12-07T22:34:50;100145.81;;;10.35;29.77
75072;BME280;63651;55.728;38.022;2022-12-07T22:39:52;100134.13;;;10.34;29.76
75072;BME280;63651;55.728;38.022;2022-12-07T22:44:53;100137.66;;;10.35;29.71
75072;BME280;63651;55.728;38.022;2022-12-07T22:49:54;100131.69;;;10.39;29.44
75072;BME280;63651;55.728;38.022;2022-12-07T22:54:56;100109.28;;;10.37;29.19
75072;BME280;63651;55.728;38.022;2022-12-07T22:59:57;100125.78;;;10.36;29.70
75072;BME280;63651;55.728;38.022;2022-12-07T23:04:58;100116.41;;;10.38;29.71
75072;BME280;63651;55.728;38.022;2022-12-07T23:09:59;100112.66;;;10.39;29.49
75072;BME280;63651;55.728;38.022;2022-12-07T23:15:03;100096.38;;;10.39;30.05
75072;BME280;63651;55.728;38.022;2022-12-07T23:20:04;100096.94;;;10.35;30.40
75072;BME280;63651;55.728;38.022;2022-12-07T23:25:06;100075.78;;;10.30;29.67
75072;BME280;63651;55.728;38.022;2022-12-07T23:30:07;100082.97;;;10.38;29.18
75072;BME280;63651;55.728;38.022;2022-12-07T23:35:09;100077.34;;;10.39;29.55
75072;BME280;63651;55.728;38.022;2022-12-07T23:40:10;100088.22;;;10.39;29.51
75072;BME280;63651;55.728;38.022;2022-12-07T23:45:11;100061.84;;;10.33;29.44
75072;BME280;63651;55.728;38.022;2022-12-07T23:50:12;100074.50;;;10.41;29.20
75072;BME280;63651;55.728;38.022;2022-12-07T23:55:13;100089.16;;;10.46;29.08
